Fort Meade, MD

11:32 PM EDT on May 26, 2017 (GMT -0400)
Tipton

Weather History for KFME - April, 2014

Change the Weather History Date:

Tuesday, April 1, 2014

  Actual Average (KBWI) Record (KBWI)
Temperature  
Mean Temperature 47 °F -  
Max Temperature 64 °F 62 °F 88 °F (1978)
Min Temperature 30 °F 38 °F 15 °F (1923)
Degree Days  
Heating Degree Days 18    
Moisture  
Dew Point 33 °F    
Average Humidity 64    
Maximum Humidity 100    
Minimum Humidity 30    
Precipitation  
Precipitation 0.00 in - - ()
Sea Level Pressure  
Sea Level Pressure 30.11 in    
Wind  
Wind Speed 2 mph (SSE)    
Max Wind Speed 10 mph    
Max Gust Speed -    
Visibility 10 miles    
Events      
Averages and records for this station are not official NWS values.
T = Trace of Precipitation, MM = Missing Value Source: NWS Daily Summary

Daily Weather History Graph

Daily Weather History Graph

Search for Another Location

Airport or City:

Trip Planner

Search our weather history database for the weather conditions in past years. The results will help you decide how hot, cold, wet, or windy it might be!

Date:

Astronomy

Apr. 01, 2014 Rise Set
Actual Time 6:51 AM EDT 7:30 PM EDT
Civil Twilight 6:24 AM EDT 7:57 PM EDT
Nautical Twilight 5:52 AM EDT 8:29 PM EDT
Astronomical Twilight 5:20 AM EDT 9:02 PM EDT
Moon 7:53 AM EDT (4/1) 9:50 PM EDT (4/1)
Length of Visible Light 13h 33m
Length of Day
12h 39m
Waxing Crescent, 4% of the Moon is Illuminated
Apr 1
Waxing Crescent
Apr 7
First Quarter
Apr 15
Full
Apr 22
Last Quarter
Apr 29
New

Hourly Weather History & Observations

Time (EDT) Temp. Windchill Dew Point Humidity Pressure Visibility Wind Dir Wind Speed Gust Speed Precip Events Conditions
12:09 AM 37.4 °F - 32.0 °F 81% 30.11 in 10.0 mi Calm Calm - N/A   Clear
12:30 AM 35.6 °F - 32.0 °F 87% 30.12 in 10.0 mi Calm Calm - N/A   Clear
12:51 AM 35.6 °F - 32.0 °F 87% 30.12 in 10.0 mi Calm Calm - N/A   Clear
1:09 AM 35.6 °F - 32.0 °F 87% 30.12 in 10.0 mi Calm Calm - N/A   Clear
1:30 AM 33.8 °F - 32.0 °F 93% 30.13 in 10.0 mi Calm Calm - N/A   Clear
1:51 AM 35.6 °F - 32.0 °F 87% 30.13 in 10.0 mi Calm Calm - N/A   Clear
2:09 AM 35.6 °F - 32.0 °F 87% 30.13 in 10.0 mi Calm Calm - N/A   Clear
2:30 AM 35.6 °F - 32.0 °F 87% 30.13 in 10.0 mi Calm Calm - N/A   Clear
2:51 AM 35.6 °F 32.8 °F 32.0 °F 87% 30.13 in 10.0 mi NNE 3.5 mph - N/A   Clear
3:09 AM 35.6 °F - 32.0 °F 87% 30.13 in 10.0 mi Calm Calm - N/A   Clear
3:30 AM 33.8 °F - 32.0 °F 93% 30.13 in 10.0 mi Calm Calm - N/A   Clear
3:51 AM 33.8 °F - 32.0 °F 93% 30.14 in 10.0 mi Calm Calm - N/A   Clear
4:09 AM 32.0 °F - 32.0 °F 100% 30.14 in 10.0 mi Calm Calm - N/A   Clear
4:30 AM 32.0 °F - 30.2 °F 93% 30.13 in 10.0 mi Calm Calm - N/A   Clear
4:51 AM 32.0 °F - 30.2 °F 93% 30.14 in 10.0 mi Calm Calm - N/A   Clear
5:09 AM 32.0 °F - 30.2 °F 93% 30.15 in 10.0 mi Calm Calm - N/A   Clear
5:30 AM 32.0 °F - 30.2 °F 93% 30.17 in 10.0 mi Calm Calm - N/A   Clear
5:51 AM 32.0 °F - 30.2 °F 93% 30.17 in 10.0 mi Calm Calm - N/A   Clear
6:09 AM 32.0 °F - 30.2 °F 93% 30.18 in 10.0 mi Calm Calm - N/A   Clear
6:30 AM 30.2 °F 26.7 °F 28.4 °F 93% 30.18 in 10.0 mi ENE 3.5 mph - N/A   Clear
6:51 AM 32.0 °F - 28.4 °F 87% 30.17 in 10.0 mi Calm Calm - N/A   Clear
7:09 AM 32.0 °F - 28.4 °F 87% 30.17 in 10.0 mi Calm Calm - N/A   Clear
7:30 AM 32.0 °F - 30.2 °F 93% 30.19 in 10.0 mi Calm Calm - N/A   Clear
7:51 AM 32.0 °F - 32.0 °F 100% 30.20 in 10.0 mi Calm Calm - N/A   Clear
8:09 AM 33.8 °F - 32.0 °F 93% 30.20 in 10.0 mi Calm Calm - N/A   Clear
8:30 AM 41.0 °F - 32.0 °F 70% 30.20 in 10.0 mi Calm Calm - N/A   Clear
8:51 AM 42.8 °F 40.1 °F 32.0 °F 66% 30.21 in 10.0 mi NE 4.6 mph - N/A   Clear
9:12 AM 44.6 °F 42.2 °F 32.0 °F 61% 30.21 in 10.0 mi East 4.6 mph - N/A   Clear
9:30 AM 44.6 °F 42.2 °F 32.0 °F 61% 30.20 in 10.0 mi East 4.6 mph - N/A   Clear
9:51 AM 46.4 °F - 32.0 °F 57% 30.20 in 10.0 mi Calm Calm - N/A   Clear
10:12 AM 46.4 °F 45.2 °F 30.2 °F 53% 30.20 in 10.0 mi South 3.5 mph - N/A   Clear
10:30 AM 48.2 °F - 32.0 °F 54% 30.20 in 10.0 mi Calm Calm - N/A   Clear
10:51 AM 50.0 °F - 32.0 °F 50% 30.18 in 10.0 mi SSE 4.6 mph - N/A   Clear
11:12 AM 51.8 °F - 32.0 °F 47% 30.18 in 10.0 mi South 4.6 mph - N/A   Clear
11:30 AM 50.0 °F - 32.0 °F 50% 30.17 in 10.0 mi SW 6.9 mph - N/A   Clear
11:51 AM 53.6 °F - 32.0 °F 44% 30.16 in 10.0 mi West 3.5 mph - N/A   Clear
12:12 PM 51.8 °F - 32.0 °F 47% 30.16 in 10.0 mi SSW 5.8 mph - N/A   Clear
12:30 PM 51.8 °F - 32.0 °F 47% 30.14 in 10.0 mi South 4.6 mph - N/A   Clear
12:51 PM 55.4 °F - 32.0 °F 41% 30.13 in 10.0 mi South 5.8 mph - N/A   Clear
1:12 PM 57.2 °F - 32.0 °F 38% 30.11 in 10.0 mi SW 4.6 mph - N/A   Clear
1:30 PM 57.2 °F - 32.0 °F 38% 30.10 in 10.0 mi SSE 4.6 mph - N/A   Clear
1:51 PM 59.0 °F - 32.0 °F 36% 30.09 in 10.0 mi SW 3.5 mph - N/A   Clear
2:12 PM 59.0 °F - 30.2 °F 34% 30.08 in 10.0 mi SW 3.5 mph - N/A   Clear
2:30 PM 59.0 °F - 32.0 °F 36% 30.07 in 10.0 mi SW 5.8 mph - N/A   Clear
2:51 PM 60.8 °F - 32.0 °F 34% 30.07 in 10.0 mi WSW 9.2 mph - N/A   Scattered Clouds
3:12 PM 60.8 °F - 32.0 °F 34% 30.05 in 10.0 mi SSW 4.6 mph - N/A   Scattered Clouds
3:30 PM 62.6 °F - 32.0 °F 32% 30.04 in 10.0 mi West 3.5 mph - N/A   Clear
3:51 PM 62.6 °F - 32.0 °F 32% 30.03 in 10.0 mi SSE 8.1 mph - N/A   Clear
4:12 PM 62.6 °F - 30.2 °F 30% 30.02 in 10.0 mi SSW 4.6 mph - N/A   Clear
4:30 PM 64.4 °F - 32.0 °F 30% 30.01 in 10.0 mi WSW 4.6 mph - N/A   Clear
4:51 PM 62.6 °F - 33.8 °F 34% 30.01 in 10.0 mi SSW 5.8 mph - N/A   Clear
5:12 PM 62.6 °F - 33.8 °F 34% 30.00 in 10.0 mi ESE 9.2 mph - N/A   Clear
5:30 PM 60.8 °F - 35.6 °F 39% 30.00 in 10.0 mi SE 10.4 mph - N/A   Clear
5:51 PM 60.8 °F - 35.6 °F 39% 30.00 in 10.0 mi SSE 5.8 mph - N/A   Clear
6:12 PM 59.0 °F - 35.6 °F 42% 30.01 in 10.0 mi SSE 9.2 mph - N/A   Clear
6:33 PM 59.0 °F - 35.6 °F 42% 30.01 in 10.0 mi ESE 8.1 mph - N/A   Clear
6:51 PM 57.2 °F - 35.6 °F 44% 30.02 in 10.0 mi SE 5.8 mph - N/A   Clear
7:12 PM 55.4 °F - 35.6 °F 47% 30.03 in 10.0 mi ESE 6.9 mph - N/A   Clear
7:33 PM 51.8 °F - 35.6 °F 54% 30.03 in 10.0 mi ESE 5.8 mph - N/A   Clear
7:51 PM 51.8 °F - 35.6 °F 54% 30.03 in 10.0 mi ESE 4.6 mph - N/A   Clear
8:12 PM 50.0 °F - 35.6 °F 58% 30.04 in 10.0 mi Calm Calm - N/A   Clear
8:33 PM 50.0 °F - 35.6 °F 58% 30.04 in 10.0 mi SE 3.5 mph - N/A   Clear
8:51 PM 50.0 °F - 35.6 °F 58% 30.05 in 10.0 mi SSE 4.6 mph - N/A   Clear
9:12 PM 48.2 °F - 35.6 °F 62% 30.04 in 10.0 mi SE 3.5 mph - N/A   Clear
9:33 PM 46.4 °F 45.2 °F 35.6 °F 66% 30.04 in 10.0 mi SE 3.5 mph - N/A   Clear
9:51 PM 46.4 °F 45.2 °F 35.6 °F 66% 30.04 in 10.0 mi SE 3.5 mph - N/A   Clear
10:12 PM 44.6 °F - 35.6 °F 71% 30.04 in 10.0 mi Calm Calm - N/A   Clear
10:33 PM 42.8 °F - 33.8 °F 70% 30.04 in 10.0 mi Calm Calm - N/A   Clear
10:51 PM 42.8 °F - 35.6 °F 76% 30.04 in 10.0 mi Calm Calm - N/A   Clear
11:12 PM 41.0 °F - 33.8 °F 76% 30.05 in 10.0 mi Calm Calm - N/A   Clear
11:33 PM 41.0 °F - 33.8 °F 76% 30.04 in 10.0 mi Calm Calm - N/A   Clear
11:51 PM 39.2 °F - 33.8 °F 81% 30.04 in 10.0 mi Calm Calm - N/A   Clear